sensor_id;sensor_type;location;lat;lon;timestamp;temperature;humidity
8858;DHT22;4465;50.904;4.696;2023-11-18T00:01:47;5.80;99.90
8858;DHT22;4465;50.904;4.696;2023-11-18T00:04:13;5.80;99.90
8858;DHT22;4465;50.904;4.696;2023-11-18T00:06:45;5.80;99.90
8858;DHT22;4465;50.904;4.696;2023-11-18T00:09:11;5.80;99.90
8858;DHT22;4465;50.904;4.696;2023-11-18T00:11:45;5.90;99.90
8858;DHT22;4465;50.904;4.696;2023-11-18T00:14:11;5.80;99.90
8858;DHT22;4465;50.904;4.696;2023-11-18T00:16:38;5.70;99.90
8858;DHT22;4465;50.904;4.696;2023-11-18T00:19:07;5.70;99.90
8858;DHT22;4465;50.904;4.696;2023-11-18T00:21:35;5.70;99.90
8858;DHT22;4465;50.904;4.696;2023-11-18T00:24:01;5.70;99.90
8858;DHT22;4465;50.904;4.696;2023-11-18T00:26:27;5.70;99.90
8858;DHT22;4465;50.904;4.696;2023-11-18T00:28:54;5.60;99.90
8858;DHT22;4465;50.904;4.696;2023-11-18T00:31:20;5.70;99.90
8858;DHT22;4465;50.904;4.696;2023-11-18T00:33:47;5.60;99.90
8858;DHT22;4465;50.904;4.696;2023-11-18T00:36:12;5.60;99.90
8858;DHT22;4465;50.904;4.696;2023-11-18T00:38:38;5.70;99.90
8858;DHT22;4465;50.904;4.696;2023-11-18T00:41:08;5.70;99.90
8858;DHT22;4465;50.904;4.696;2023-11-18T00:43:34;5.60;99.90
8858;DHT22;4465;50.904;4.696;2023-11-18T00:46:00;5.70;99.90
8858;DHT22;4465;50.904;4.696;2023-11-18T00:48:28;5.70;99.90
8858;DHT22;4465;50.904;4.696;2023-11-18T00:50:56;5.60;99.90
8858;DHT22;4465;50.904;4.696;2023-11-18T00:53:22;5.60;99.90
8858;DHT22;4465;50.904;4.696;2023-11-18T00:55:48;5.60;99.90
8858;DHT22;4465;50.904;4.696;2023-11-18T00:58:16;5.60;99.90
8858;DHT22;4465;50.904;4.696;2023-11-18T01:00:42;5.60;99.90
8858;DHT22;4465;50.904;4.696;2023-11-18T01:03:08;5.60;99.90
8858;DHT22;4465;50.904;4.696;2023-11-18T01:05:35;5.60;99.90
8858;DHT22;4465;50.904;4.696;2023-11-18T01:08:01;5.60;99.90
8858;DHT22;4465;50.904;4.696;2023-11-18T01:10:28;5.60;99.90
8858;DHT22;4465;50.904;4.696;2023-11-18T01:12:55;5.60;99.90
8858;DHT22;4465;50.904;4.696;2023-11-18T01:15:21;5.60;99.90
8858;DHT22;4465;50.904;4.696;2023-11-18T01:17:51;5.60;99.90
8858;DHT22;4465;50.904;4.696;2023-11-18T01:20:20;5.60;99.90
8858;DHT22;4465;50.904;4.696;2023-11-18T01:22:47;5.60;99.90
8858;DHT22;4465;50.904;4.696;2023-11-18T01:25:19;5.60;99.90
8858;DHT22;4465;50.904;4.696;2023-11-18T01:27:46;5.70;99.90
8858;DHT22;4465;50.904;4.696;2023-11-18T01:30:13;5.70;99.90
8858;DHT22;4465;50.904;4.696;2023-11-18T01:32:42;5.70;99.90
8858;DHT22;4465;50.904;4.696;2023-11-18T01:35:08;5.70;99.90
8858;DHT22;4465;50.904;4.696;2023-11-18T01:37:37;5.70;99.90
8858;DHT22;4465;50.904;4.696;2023-11-18T01:40:04;5.70;99.90
8858;DHT22;4465;50.904;4.696;2023-11-18T01:42:31;5.70;99.90
8858;DHT22;4465;50.904;4.696;2023-11-18T01:44:57;5.70;99.90
8858;DHT22;4465;50.904;4.696;2023-11-18T01:47:26;5.70;99.90
8858;DHT22;4465;50.904;4.696;2023-11-18T01:49:52;5.80;99.90
8858;DHT22;4465;50.904;4.696;2023-11-18T01:52:18;5.80;99.90
8858;DHT22;4465;50.904;4.696;2023-11-18T01:54:47;5.70;99.90
8858;DHT22;4465;50.904;4.696;2023-11-18T01:57:14;5.70;99.90
8858;DHT22;4465;50.904;4.696;2023-11-18T01:59:45;5.80;99.90
8858;DHT22;4465;50.904;4.696;2023-11-18T02:02:13;5.80;99.90
8858;DHT22;4465;50.904;4.696;2023-11-18T02:04:39;5.80;99.90
8858;DHT22;4465;50.904;4.696;2023-11-18T02:07:05;5.80;99.90
8858;DHT22;4465;50.904;4.696;2023-11-18T02:09:35;5.80;99.90
8858;DHT22;4465;50.904;4.696;2023-11-18T02:12:22;5.80;99.90
8858;DHT22;4465;50.904;4.696;2023-11-18T02:14:50;5.80;99.90
8858;DHT22;4465;50.904;4.696;2023-11-18T02:17:18;5.80;99.90
8858;DHT22;4465;50.904;4.696;2023-11-18T02:19:51;5.80;99.90
8858;DHT22;4465;50.904;4.696;2023-11-18T02:22:20;5.80;99.90
8858;DHT22;4465;50.904;4.696;2023-11-18T02:24:47;5.80;99.90
8858;DHT22;4465;50.904;4.696;2023-11-18T02:27:14;5.80;99.90
8858;DHT22;4465;50.904;4.696;2023-11-18T02:29:44;5.80;99.90
8858;DHT22;4465;50.904;4.696;2023-11-18T02:32:30;5.80;99.90
8858;DHT22;4465;50.904;4.696;2023-11-18T02:35:23;5.80;99.90
8858;DHT22;4465;50.904;4.696;2023-11-18T02:37:53;5.80;99.90
8858;DHT22;4465;50.904;4.696;2023-11-18T02:40:27;5.80;99.90
8858;DHT22;4465;50.904;4.696;2023-11-18T02:42:58;5.80;99.90
8858;DHT22;4465;50.904;4.696;2023-11-18T02:45:25;5.80;99.90
8858;DHT22;4465;50.904;4.696;2023-11-18T02:47:52;5.80;99.90
8858;DHT22;4465;50.904;4.696;2023-11-18T02:50:24;5.80;99.90
8858;DHT22;4465;50.904;4.696;2023-11-18T02:52:53;5.80;99.90
8858;DHT22;4465;50.904;4.696;2023-11-18T02:55:19;5.80;99.90
8858;DHT22;4465;50.904;4.696;2023-11-18T02:57:48;5.80;99.90
8858;DHT22;4465;50.904;4.696;2023-11-18T03:00:17;5.80;99.90
8858;DHT22;4465;50.904;4.696;2023-11-18T03:02:50;5.80;99.90
8858;DHT22;4465;50.904;4.696;2023-11-18T03:05:17;5.80;99.90
8858;DHT22;4465;50.904;4.696;2023-11-18T03:07:52;5.80;99.90
8858;DHT22;4465;50.904;4.696;2023-11-18T03:10:20;5.80;99.90
8858;DHT22;4465;50.904;4.696;2023-11-18T03:12:50;5.80;99.90
8858;DHT22;4465;50.904;4.696;2023-11-18T03:15:18;5.80;99.90
8858;DHT22;4465;50.904;4.696;2023-11-18T03:17:50;5.80;99.90
8858;DHT22;4465;50.904;4.696;2023-11-18T03:20:22;5.80;99.90
8858;DHT22;4465;50.904;4.696;2023-11-18T03:22:49;5.80;99.90
8858;DHT22;4465;50.904;4.696;2023-11-18T03:25:18;5.80;99.90
8858;DHT22;4465;50.904;4.696;2023-11-18T03:27:47;5.80;99.90
8858;DHT22;4465;50.904;4.696;2023-11-18T03:30:14;5.80;99.90
8858;DHT22;4465;50.904;4.696;2023-11-18T03:32:42;5.80;99.90
8858;DHT22;4465;50.904;4.696;2023-11-18T03:35:11;5.80;99.90
8858;DHT22;4465;50.904;4.696;2023-11-18T03:37:38;5.80;99.90
8858;DHT22;4465;50.904;4.696;2023-11-18T03:40:15;5.80;99.90
8858;DHT22;4465;50.904;4.696;2023-11-18T03:42:44;5.80;99.90
8858;DHT22;4465;50.904;4.696;2023-11-18T03:45:14;5.80;99.90
8858;DHT22;4465;50.904;4.696;2023-11-18T03:47:44;5.80;99.90
8858;DHT22;4465;50.904;4.696;2023-11-18T03:50:13;5.80;99.90
8858;DHT22;4465;50.904;4.696;2023-11-18T03:52:39;5.80;99.90
8858;DHT22;4465;50.904;4.696;2023-11-18T03:55:06;5.90;99.90
8858;DHT22;4465;50.904;4.696;2023-11-18T03:57:32;5.80;99.90
8858;DHT22;4465;50.904;4.696;2023-11-18T03:59:58;5.90;99.90
8858;DHT22;4465;50.904;4.696;2023-11-18T04:02:24;5.90;99.90
8858;DHT22;4465;50.904;4.696;2023-11-18T04:04:50;5.90;99.90
8858;DHT22;4465;50.904;4.696;2023-11-18T04:07:19;5.90;99.90
8858;DHT22;4465;50.904;4.696;2023-11-18T04:09:45;6.00;99.90
8858;DHT22;4465;50.904;4.696;2023-11-18T04:12:11;6.00;99.90
8858;DHT22;4465;50.904;4.696;2023-11-18T04:14:37;6.00;99.90
8858;DHT22;4465;50.904;4.696;2023-11-18T04:17:03;6.00;99.90
8858;DHT22;4465;50.904;4.696;2023-11-18T04:19:29;6.10;99.90
8858;DHT22;4465;50.904;4.696;2023-11-18T04:21:55;6.10;99.90
8858;DHT22;4465;50.904;4.696;2023-11-18T04:24:23;6.10;99.90
8858;DHT22;4465;50.904;4.696;2023-11-18T04:26:52;6.20;99.90
8858;DHT22;4465;50.904;4.696;2023-11-18T04:29:20;6.20;99.90
8858;DHT22;4465;50.904;4.696;2023-11-18T04:31:50;6.20;99.90
8858;DHT22;4465;50.904;4.696;2023-11-18T04:34:21;6.20;99.90
8858;DHT22;4465;50.904;4.696;2023-11-18T04:36:47;6.20;99.90
8858;DHT22;4465;50.904;4.696;2023-11-18T04:39:13;6.30;99.90
8858;DHT22;4465;50.904;4.696;2023-11-18T04:41:41;6.30;99.90
8858;DHT22;4465;50.904;4.696;2023-11-18T04:44:07;6.30;99.90
8858;DHT22;4465;50.904;4.696;2023-11-18T04:46:33;6.30;99.90
8858;DHT22;4465;50.904;4.696;2023-11-18T04:48:59;6.40;99.90
8858;DHT22;4465;50.904;4.696;2023-11-18T04:51:32;6.40;99.90
8858;DHT22;4465;50.904;4.696;2023-11-18T04:53:58;6.40;99.90
8858;DHT22;4465;50.904;4.696;2023-11-18T04:56:24;6.40;99.90
8858;DHT22;4465;50.904;4.696;2023-11-18T04:58:50;6.40;99.90
8858;DHT22;4465;50.904;4.696;2023-11-18T05:01:16;6.40;99.90
8858;DHT22;4465;50.904;4.696;2023-11-18T05:03:42;6.50;99.90
8858;DHT22;4465;50.904;4.696;2023-11-18T05:06:08;6.50;99.90
8858;DHT22;4465;50.904;4.696;2023-11-18T05:08:34;6.50;99.90
8858;DHT22;4465;50.904;4.696;2023-11-18T05:11:01;6.50;99.90
8858;DHT22;4465;50.904;4.696;2023-11-18T05:13:29;6.50;99.90
8858;DHT22;4465;50.904;4.696;2023-11-18T05:15:55;6.50;99.90
8858;DHT22;4465;50.904;4.696;2023-11-18T05:18:21;6.60;99.90
8858;DHT22;4465;50.904;4.696;2023-11-18T05:20:47;6.50;99.90
8858;DHT22;4465;50.904;4.696;2023-11-18T05:23:15;6.60;99.90
8858;DHT22;4465;50.904;4.696;2023-11-18T05:25:43;6.60;99.90
8858;DHT22;4465;50.904;4.696;2023-11-18T05:28:09;6.60;99.90
8858;DHT22;4465;50.904;4.696;2023-11-18T05:30:38;6.60;99.90
8858;DHT22;4465;50.904;4.696;2023-11-18T05:33:05;6.60;99.90
8858;DHT22;4465;50.904;4.696;2023-11-18T05:35:34;6.60;99.90
8858;DHT22;4465;50.904;4.696;2023-11-18T05:38:02;6.70;99.90
8858;DHT22;4465;50.904;4.696;2023-11-18T05:40:29;6.70;99.90
8858;DHT22;4465;50.904;4.696;2023-11-18T05:42:55;6.70;99.90
8858;DHT22;4465;50.904;4.696;2023-11-18T05:45:23;6.70;99.90
8858;DHT22;4465;50.904;4.696;2023-11-18T05:47:58;6.70;99.90
8858;DHT22;4465;50.904;4.696;2023-11-18T05:50:24;6.70;99.90
8858;DHT22;4465;50.904;4.696;2023-11-18T05:52:54;6.70;99.90
8858;DHT22;4465;50.904;4.696;2023-11-18T05:55:22;6.70;99.90
8858;DHT22;4465;50.904;4.696;2023-11-18T05:57:51;6.70;99.90
8858;DHT22;4465;50.904;4.696;2023-11-18T06:00:17;6.70;99.90
8858;DHT22;4465;50.904;4.696;2023-11-18T06:02:44;6.70;99.90
8858;DHT22;4465;50.904;4.696;2023-11-18T06:05:11;6.80;99.90
8858;DHT22;4465;50.904;4.696;2023-11-18T06:07:40;6.70;99.90
8858;DHT22;4465;50.904;4.696;2023-11-18T06:10:11;6.70;99.90
8858;DHT22;4465;50.904;4.696;2023-11-18T06:12:37;6.80;99.90
8858;DHT22;4465;50.904;4.696;2023-11-18T06:15:06;6.80;99.90
8858;DHT22;4465;50.904;4.696;2023-11-18T06:17:37;6.80;99.90
8858;DHT22;4465;50.904;4.696;2023-11-18T06:20:03;6.80;99.90
8858;DHT22;4465;50.904;4.696;2023-11-18T06:22:32;6.80;99.90
8858;DHT22;4465;50.904;4.696;2023-11-18T06:24:58;6.90;99.90
8858;DHT22;4465;50.904;4.696;2023-11-18T06:27:23;6.80;99.90
8858;DHT22;4465;50.904;4.696;2023-11-18T06:29:52;6.90;99.90
8858;DHT22;4465;50.904;4.696;2023-11-18T06:32:23;6.90;99.90
8858;DHT22;4465;50.904;4.696;2023-11-18T06:34:52;6.90;99.90
8858;DHT22;4465;50.904;4.696;2023-11-18T06:37:19;7.00;99.90
8858;DHT22;4465;50.904;4.696;2023-11-18T06:39:45;7.00;99.90
8858;DHT22;4465;50.904;4.696;2023-11-18T06:42:13;7.00;99.90
8858;DHT22;4465;50.904;4.696;2023-11-18T06:44:42;7.00;99.90
8858;DHT22;4465;50.904;4.696;2023-11-18T06:47:08;7.00;99.90
8858;DHT22;4465;50.904;4.696;2023-11-18T06:49:34;7.10;99.90
8858;DHT22;4465;50.904;4.696;2023-11-18T06:52:00;7.10;99.90
8858;DHT22;4465;50.904;4.696;2023-11-18T06:54:31;7.20;99.90
8858;DHT22;4465;50.904;4.696;2023-11-18T06:56:59;7.20;99.90
8858;DHT22;4465;50.904;4.696;2023-11-18T06:59:24;7.20;99.90
8858;DHT22;4465;50.904;4.696;2023-11-18T07:01:50;7.20;99.90
8858;DHT22;4465;50.904;4.696;2023-11-18T07:04:16;7.40;99.90
8858;DHT22;4465;50.904;4.696;2023-11-18T07:06:42;7.30;99.90
8858;DHT22;4465;50.904;4.696;2023-11-18T07:09:11;7.30;99.90
8858;DHT22;4465;50.904;4.696;2023-11-18T07:11:43;7.40;99.90
8858;DHT22;4465;50.904;4.696;2023-11-18T07:14:12;7.40;99.90
8858;DHT22;4465;50.904;4.696;2023-11-18T07:16:40;7.40;99.90
8858;DHT22;4465;50.904;4.696;2023-11-18T07:19:07;7.50;99.90
8858;DHT22;4465;50.904;4.696;2023-11-18T07:21:34;7.50;99.90
8858;DHT22;4465;50.904;4.696;2023-11-18T07:24:02;7.50;99.90
8858;DHT22;4465;50.904;4.696;2023-11-18T07:26:28;7.50;99.90
8858;DHT22;4465;50.904;4.696;2023-11-18T07:28:56;7.50;99.90
8858;DHT22;4465;50.904;4.696;2023-11-18T07:31:22;7.60;99.90
8858;DHT22;4465;50.904;4.696;2023-11-18T07:33:52;7.50;99.90
8858;DHT22;4465;50.904;4.696;2023-11-18T07:36:18;7.50;99.90
8858;DHT22;4465;50.904;4.696;2023-11-18T07:38:50;7.60;99.90
8858;DHT22;4465;50.904;4.696;2023-11-18T07:41:19;7.60;99.90
8858;DHT22;4465;50.904;4.696;2023-11-18T07:43:55;7.50;99.90
8858;DHT22;4465;50.904;4.696;2023-11-18T07:46:24;7.60;99.90
8858;DHT22;4465;50.904;4.696;2023-11-18T07:48:54;7.50;99.90
8858;DHT22;4465;50.904;4.696;2023-11-18T07:51:21;7.60;99.90
8858;DHT22;4465;50.904;4.696;2023-11-18T07:53:48;7.60;99.90
8858;DHT22;4465;50.904;4.696;2023-11-18T07:56:15;7.60;99.90
8858;DHT22;4465;50.904;4.696;2023-11-18T07:58:43;7.60;99.90
8858;DHT22;4465;50.904;4.696;2023-11-18T08:01:13;7.60;99.90
8858;DHT22;4465;50.904;4.696;2023-11-18T08:03:42;7.60;99.90
8858;DHT22;4465;50.904;4.696;2023-11-18T08:06:08;7.70;99.90
8858;DHT22;4465;50.904;4.696;2023-11-18T08:08:36;7.70;99.90
8858;DHT22;4465;50.904;4.696;2023-11-18T08:11:06;7.70;99.90
8858;DHT22;4465;50.904;4.696;2023-11-18T08:13:37;7.70;99.90
8858;DHT22;4465;50.904;4.696;2023-11-18T08:16:06;7.80;99.90
8858;DHT22;4465;50.904;4.696;2023-11-18T08:18:35;7.80;99.90
8858;DHT22;4465;50.904;4.696;2023-11-18T08:21:02;7.80;99.90
8858;DHT22;4465;50.904;4.696;2023-11-18T08:23:32;7.80;99.90
8858;DHT22;4465;50.904;4.696;2023-11-18T08:25:58;7.80;99.90
8858;DHT22;4465;50.904;4.696;2023-11-18T08:28:26;7.80;99.90
8858;DHT22;4465;50.904;4.696;2023-11-18T08:30:55;7.80;99.90
8858;DHT22;4465;50.904;4.696;2023-11-18T08:34:18;7.80;99.90
8858;DHT22;4465;50.904;4.696;2023-11-18T08:36:47;7.80;99.90
8858;DHT22;4465;50.904;4.696;2023-11-18T08:39:13;7.80;99.90
8858;DHT22;4465;50.904;4.696;2023-11-18T08:41:42;7.80;99.90
8858;DHT22;4465;50.904;4.696;2023-11-18T08:44:09;7.80;99.90
8858;DHT22;4465;50.904;4.696;2023-11-18T08:46:39;7.80;99.90
8858;DHT22;4465;50.904;4.696;2023-11-18T08:49:05;7.80;99.90
8858;DHT22;4465;50.904;4.696;2023-11-18T08:51:40;7.80;99.90
8858;DHT22;4465;50.904;4.696;2023-11-18T08:54:09;7.80;99.90
8858;DHT22;4465;50.904;4.696;2023-11-18T08:57:04;7.80;99.90
8858;DHT22;4465;50.904;4.696;2023-11-18T08:59:45;7.80;99.90
8858;DHT22;4465;50.904;4.696;2023-11-18T09:02:11;7.90;99.90
8858;DHT22;4465;50.904;4.696;2023-11-18T09:04:41;7.80;99.90
8858;DHT22;4465;50.904;4.696;2023-11-18T09:07:10;7.90;99.90
8858;DHT22;4465;50.904;4.696;2023-11-18T09:09:36;7.90;99.90
8858;DHT22;4465;50.904;4.696;2023-11-18T09:12:05;7.90;99.90
8858;DHT22;4465;50.904;4.696;2023-11-18T09:14:36;8.00;99.90
8858;DHT22;4465;50.904;4.696;2023-11-18T09:17:02;8.00;99.90
8858;DHT22;4465;50.904;4.696;2023-11-18T09:19:28;8.00;99.90
8858;DHT22;4465;50.904;4.696;2023-11-18T09:21:57;8.00;99.90
8858;DHT22;4465;50.904;4.696;2023-11-18T09:24:25;8.00;99.90
8858;DHT22;4465;50.904;4.696;2023-11-18T09:26:51;8.00;99.90
8858;DHT22;4465;50.904;4.696;2023-11-18T09:29:17;8.00;99.90
8858;DHT22;4465;50.904;4.696;2023-11-18T09:31:47;8.10;99.90
8858;DHT22;4465;50.904;4.696;2023-11-18T09:34:18;8.00;99.90
8858;DHT22;4465;50.904;4.696;2023-11-18T09:36:53;8.10;99.90
8858;DHT22;4465;50.904;4.696;2023-11-18T09:39:21;8.10;99.90
8858;DHT22;4465;50.904;4.696;2023-11-18T09:42:05;8.10;99.90
8858;DHT22;4465;50.904;4.696;2023-11-18T09:44:36;8.10;99.90
8858;DHT22;4465;50.904;4.696;2023-11-18T09:47:07;8.10;99.90
8858;DHT22;4465;50.904;4.696;2023-11-18T09:49:40;8.10;99.90
8858;DHT22;4465;50.904;4.696;2023-11-18T09:52:12;8.10;99.90
8858;DHT22;4465;50.904;4.696;2023-11-18T09:54:52;8.10;99.90
8858;DHT22;4465;50.904;4.696;2023-11-18T09:57:43;8.10;99.90
8858;DHT22;4465;50.904;4.696;2023-11-18T10:00:16;8.10;99.90
8858;DHT22;4465;50.904;4.696;2023-11-18T10:02:50;8.10;99.90
8858;DHT22;4465;50.904;4.696;2023-11-18T10:05:22;8.10;99.90
8858;DHT22;4465;50.904;4.696;2023-11-18T10:07:49;8.10;99.90
8858;DHT22;4465;50.904;4.696;2023-11-18T10:10:19;8.10;99.90
8858;DHT22;4465;50.904;4.696;2023-11-18T10:12:47;8.10;99.90
8858;DHT22;4465;50.904;4.696;2023-11-18T10:15:20;8.10;99.90
8858;DHT22;4465;50.904;4.696;2023-11-18T10:17:50;8.10;99.90
8858;DHT22;4465;50.904;4.696;2023-11-18T10:23:14;8.10;99.90
8858;DHT22;4465;50.904;4.696;2023-11-18T10:25:45;8.10;99.90
8858;DHT22;4465;50.904;4.696;2023-11-18T10:30:59;8.10;99.90
8858;DHT22;4465;50.904;4.696;2023-11-18T10:33:35;8.20;99.90
8858;DHT22;4465;50.904;4.696;2023-11-18T10:36:05;8.20;99.90
8858;DHT22;4465;50.904;4.696;2023-11-18T10:38:39;8.30;99.90
8858;DHT22;4465;50.904;4.696;2023-11-18T10:41:10;8.20;99.90
8858;DHT22;4465;50.904;4.696;2023-11-18T10:43:37;8.30;99.90
8858;DHT22;4465;50.904;4.696;2023-11-18T10:46:09;8.30;99.90
8858;DHT22;4465;50.904;4.696;2023-11-18T10:51:10;8.20;99.90
8858;DHT22;4465;50.904;4.696;2023-11-18T10:53:43;8.30;99.90
8858;DHT22;4465;50.904;4.696;2023-11-18T10:56:27;8.30;99.90
8858;DHT22;4465;50.904;4.696;2023-11-18T10:59:20;8.20;99.90
8858;DHT22;4465;50.904;4.696;2023-11-18T11:01:46;8.30;99.90
8858;DHT22;4465;50.904;4.696;2023-11-18T11:04:15;8.30;99.90
8858;DHT22;4465;50.904;4.696;2023-11-18T11:06:48;8.30;99.90
8858;DHT22;4465;50.904;4.696;2023-11-18T11:09:23;8.30;99.90
8858;DHT22;4465;50.904;4.696;2023-11-18T11:12:08;8.30;99.90
8858;DHT22;4465;50.904;4.696;2023-11-18T11:14:46;8.30;99.90
8858;DHT22;4465;50.904;4.696;2023-11-18T11:17:17;8.30;99.90
8858;DHT22;4465;50.904;4.696;2023-11-18T11:23:01;8.40;99.90
8858;DHT22;4465;50.904;4.696;2023-11-18T11:28:23;8.40;99.90
8858;DHT22;4465;50.904;4.696;2023-11-18T11:31:10;8.40;99.90
8858;DHT22;4465;50.904;4.696;2023-11-18T11:36:46;8.50;99.90
8858;DHT22;4465;50.904;4.696;2023-11-18T11:39:13;8.40;99.90
8858;DHT22;4465;50.904;4.696;2023-11-18T11:41:46;8.50;99.90
8858;DHT22;4465;50.904;4.696;2023-11-18T11:44:22;8.50;99.90
8858;DHT22;4465;50.904;4.696;2023-11-18T11:46:55;8.50;99.90
8858;DHT22;4465;50.904;4.696;2023-11-18T11:49:23;8.40;99.90
8858;DHT22;4465;50.904;4.696;2023-11-18T11:52:18;8.50;99.90
8858;DHT22;4465;50.904;4.696;2023-11-18T11:57:27;8.50;99.90
8858;DHT22;4465;50.904;4.696;2023-11-18T12:00:00;8.50;99.90
8858;DHT22;4465;50.904;4.696;2023-11-18T12:02:53;8.50;99.90
8858;DHT22;4465;50.904;4.696;2023-11-18T12:05:26;8.50;99.90
8858;DHT22;4465;50.904;4.696;2023-11-18T12:07:53;8.50;99.90
8858;DHT22;4465;50.904;4.696;2023-11-18T12:10:26;8.60;99.90
8858;DHT22;4465;50.904;4.696;2023-11-18T12:13:10;8.60;99.90
8858;DHT22;4465;50.904;4.696;2023-11-18T12:15:49;8.60;99.90
8858;DHT22;4465;50.904;4.696;2023-11-18T12:18:32;8.60;99.90
8858;DHT22;4465;50.904;4.696;2023-11-18T12:21:01;8.60;99.90
8858;DHT22;4465;50.904;4.696;2023-11-18T12:23:33;8.60;99.90
8858;DHT22;4465;50.904;4.696;2023-11-18T12:26:00;8.80;99.90
8858;DHT22;4465;50.904;4.696;2023-11-18T12:28:32;8.70;99.90
8858;DHT22;4465;50.904;4.696;2023-11-18T12:31:02;8.70;99.90
8858;DHT22;4465;50.904;4.696;2023-11-18T12:42:07;8.70;99.90
8858;DHT22;4465;50.904;4.696;2023-11-18T12:44:44;8.70;99.90
8858;DHT22;4465;50.904;4.696;2023-11-18T12:47:24;8.70;99.90
8858;DHT22;4465;50.904;4.696;2023-11-18T12:49:56;8.70;99.90
8858;DHT22;4465;50.904;4.696;2023-11-18T12:52:26;8.70;99.90
8858;DHT22;4465;50.904;4.696;2023-11-18T12:54:53;8.70;99.90
8858;DHT22;4465;50.904;4.696;2023-11-18T12:57:27;8.70;99.90
8858;DHT22;4465;50.904;4.696;2023-11-18T12:59:58;8.70;99.90
8858;DHT22;4465;50.904;4.696;2023-11-18T13:02:26;8.70;99.90
8858;DHT22;4465;50.904;4.696;2023-11-18T13:04:52;8.80;99.90
8858;DHT22;4465;50.904;4.696;2023-11-18T13:07:21;8.80;99.90
8858;DHT22;4465;50.904;4.696;2023-11-18T13:09:48;8.80;99.90
8858;DHT22;4465;50.904;4.696;2023-11-18T13:12:14;8.80;99.90
8858;DHT22;4465;50.904;4.696;2023-11-18T13:14:42;8.80;99.90
8858;DHT22;4465;50.904;4.696;2023-11-18T13:17:15;8.80;99.90
8858;DHT22;4465;50.904;4.696;2023-11-18T13:19:42;8.80;99.90
8858;DHT22;4465;50.904;4.696;2023-11-18T13:22:10;8.80;99.90
8858;DHT22;4465;50.904;4.696;2023-11-18T13:24:38;8.80;99.90
8858;DHT22;4465;50.904;4.696;2023-11-18T13:27:13;8.80;99.90
8858;DHT22;4465;50.904;4.696;2023-11-18T13:29:44;8.80;99.90
8858;DHT22;4465;50.904;4.696;2023-11-18T13:32:11;8.90;99.90
8858;DHT22;4465;50.904;4.696;2023-11-18T13:34:39;8.90;99.90
8858;DHT22;4465;50.904;4.696;2023-11-18T13:37:08;8.90;99.90
8858;DHT22;4465;50.904;4.696;2023-11-18T13:39:34;8.90;99.90
8858;DHT22;4465;50.904;4.696;2023-11-18T13:42:26;8.90;99.90
8858;DHT22;4465;50.904;4.696;2023-11-18T13:45:09;8.90;99.90
8858;DHT22;4465;50.904;4.696;2023-11-18T13:47:48;8.90;99.90
8858;DHT22;4465;50.904;4.696;2023-11-18T13:50:19;9.00;99.90
8858;DHT22;4465;50.904;4.696;2023-11-18T13:56:28;9.00;99.90
8858;DHT22;4465;50.904;4.696;2023-11-18T13:58:55;9.00;99.90
8858;DHT22;4465;50.904;4.696;2023-11-18T14:01:47;9.00;99.90
8858;DHT22;4465;50.904;4.696;2023-11-18T14:04:22;9.10;99.90
8858;DHT22;4465;50.904;4.696;2023-11-18T14:11:08;9.10;99.90
8858;DHT22;4465;50.904;4.696;2023-11-18T14:22:17;9.20;99.90
8858;DHT22;4465;50.904;4.696;2023-11-18T14:24:44;9.10;99.90
8858;DHT22;4465;50.904;4.696;2023-11-18T14:27:13;9.20;99.90
8858;DHT22;4465;50.904;4.696;2023-11-18T14:29:41;9.20;99.90
8858;DHT22;4465;50.904;4.696;2023-11-18T14:35:51;9.30;99.90
8858;DHT22;4465;50.904;4.696;2023-11-18T14:58:22;9.30;99.90
8858;DHT22;4465;50.904;4.696;2023-11-18T15:01:47;9.30;99.90
8858;DHT22;4465;50.904;4.696;2023-11-18T15:04:29;9.30;99.90
8858;DHT22;4465;50.904;4.696;2023-11-18T15:14:03;9.40;99.90
8858;DHT22;4465;50.904;4.696;2023-11-18T15:16:46;9.40;99.90
8858;DHT22;4465;50.904;4.696;2023-11-18T15:26:20;9.50;99.90
8858;DHT22;4465;50.904;4.696;2023-11-18T15:32:44;9.50;99.90
8858;DHT22;4465;50.904;4.696;2023-11-18T15:35:19;9.50;99.90
8858;DHT22;4465;50.904;4.696;2023-11-18T15:42:54;9.60;99.90
8858;DHT22;4465;50.904;4.696;2023-11-18T15:53:53;9.60;99.90
8858;DHT22;4465;50.904;4.696;2023-11-18T17:09:07;10.30;99.90
8858;DHT22;4465;50.904;4.696;2023-11-18T17:19:20;10.40;99.90
8858;DHT22;4465;50.904;4.696;2023-11-18T17:21:47;10.40;99.90
8858;DHT22;4465;50.904;4.696;2023-11-18T17:24:22;10.40;99.90
8858;DHT22;4465;50.904;4.696;2023-11-18T17:26:59;10.50;99.90
8858;DHT22;4465;50.904;4.696;2023-11-18T17:44:54;10.70;99.90
8858;DHT22;4465;50.904;4.696;2023-11-18T17:48:05;10.80;99.90
8858;DHT22;4465;50.904;4.696;2023-11-18T17:50:48;10.80;99.90
8858;DHT22;4465;50.904;4.696;2023-11-18T17:53:40;10.80;99.90
8858;DHT22;4465;50.904;4.696;2023-11-18T17:56:13;10.80;99.90
8858;DHT22;4465;50.904;4.696;2023-11-18T17:58:59;10.90;99.90
8858;DHT22;4465;50.904;4.696;2023-11-18T18:04:57;10.90;99.90
8858;DHT22;4465;50.904;4.696;2023-11-18T18:07:31;11.00;99.90
8858;DHT22;4465;50.904;4.696;2023-11-18T18:09:57;11.00;99.90
8858;DHT22;4465;50.904;4.696;2023-11-18T18:12:26;11.00;99.90
8858;DHT22;4465;50.904;4.696;2023-11-18T18:14:56;11.10;99.90
8858;DHT22;4465;50.904;4.696;2023-11-18T18:17:27;11.10;99.90
8858;DHT22;4465;50.904;4.696;2023-11-18T18:19:53;11.10;99.90
8858;DHT22;4465;50.904;4.696;2023-11-18T18:22:26;11.10;99.90
8858;DHT22;4465;50.904;4.696;2023-11-18T18:25:48;11.20;99.90
8858;DHT22;4465;50.904;4.696;2023-11-18T18:28:14;11.20;99.90
8858;DHT22;4465;50.904;4.696;2023-11-18T18:30:42;11.20;99.90
8858;DHT22;4465;50.904;4.696;2023-11-18T18:33:08;11.30;99.90
8858;DHT22;4465;50.904;4.696;2023-11-18T18:35:35;11.30;99.90
8858;DHT22;4465;50.904;4.696;2023-11-18T18:38:08;11.30;99.90
8858;DHT22;4465;50.904;4.696;2023-11-18T18:40:43;11.40;99.90
8858;DHT22;4465;50.904;4.696;2023-11-18T18:43:12;11.30;99.90
8858;DHT22;4465;50.904;4.696;2023-11-18T18:45:38;11.40;99.90
8858;DHT22;4465;50.904;4.696;2023-11-18T18:48:05;11.40;99.90
8858;DHT22;4465;50.904;4.696;2023-11-18T18:50:31;11.40;99.90
8858;DHT22;4465;50.904;4.696;2023-11-18T18:56:49;11.50;99.90
8858;DHT22;4465;50.904;4.696;2023-11-18T19:02:56;11.50;99.90
8858;DHT22;4465;50.904;4.696;2023-11-18T19:05:22;11.60;99.90
8858;DHT22;4465;50.904;4.696;2023-11-18T19:11:39;11.60;99.90
8858;DHT22;4465;50.904;4.696;2023-11-18T19:14:05;11.70;99.90
8858;DHT22;4465;50.904;4.696;2023-11-18T19:16:31;11.70;99.90
8858;DHT22;4465;50.904;4.696;2023-11-18T19:18:57;11.70;99.90
8858;DHT22;4465;50.904;4.696;2023-11-18T19:21:24;11.70;99.90
8858;DHT22;4465;50.904;4.696;2023-11-18T19:23:53;11.80;99.90
8858;DHT22;4465;50.904;4.696;2023-11-18T19:26:20;11.80;99.90
8858;DHT22;4465;50.904;4.696;2023-11-18T19:28:48;11.80;99.90
8858;DHT22;4465;50.904;4.696;2023-11-18T19:31:17;11.80;99.90
8858;DHT22;4465;50.904;4.696;2023-11-18T19:33:43;11.80;99.90
8858;DHT22;4465;50.904;4.696;2023-11-18T19:36:10;11.80;99.90
8858;DHT22;4465;50.904;4.696;2023-11-18T19:38:37;11.90;99.90
8858;DHT22;4465;50.904;4.696;2023-11-18T19:41:04;11.90;99.90
8858;DHT22;4465;50.904;4.696;2023-11-18T19:43:31;11.90;99.90
8858;DHT22;4465;50.904;4.696;2023-11-18T19:45:58;11.90;99.90
8858;DHT22;4465;50.904;4.696;2023-11-18T19:48:24;11.90;99.90
8858;DHT22;4465;50.904;4.696;2023-11-18T19:50:51;11.90;99.90
8858;DHT22;4465;50.904;4.696;2023-11-18T19:53:22;11.90;99.90
8858;DHT22;4465;50.904;4.696;2023-11-18T19:55:48;12.00;99.90
8858;DHT22;4465;50.904;4.696;2023-11-18T19:58:16;11.90;99.90
8858;DHT22;4465;50.904;4.696;2023-11-18T20:00:44;12.00;99.90
8858;DHT22;4465;50.904;4.696;2023-11-18T20:03:10;12.00;99.90
8858;DHT22;4465;50.904;4.696;2023-11-18T20:05:41;12.00;99.90